sensor_id;sensor_type;location;lat;lon;timestamp;temperature;humidity
3727;DHT22;1879;45.876;12.300;2023-12-20T00:00:23;4.10;99.90
3727;DHT22;1879;45.876;12.300;2023-12-20T00:02:50;4.20;99.90
3727;DHT22;1879;45.876;12.300;2023-12-20T00:05:17;4.20;99.90
3727;DHT22;1879;45.876;12.300;2023-12-20T00:07:44;4.20;99.90
3727;DHT22;1879;45.876;12.300;2023-12-20T00:10:11;4.00;99.90
3727;DHT22;1879;45.876;12.300;2023-12-20T00:12:39;4.00;99.90
3727;DHT22;1879;45.876;12.300;2023-12-20T00:15:07;4.00;99.90
3727;DHT22;1879;45.876;12.300;2023-12-20T00:17:35;4.00;99.90
3727;DHT22;1879;45.876;12.300;2023-12-20T00:20:02;4.00;99.90
3727;DHT22;1879;45.876;12.300;2023-12-20T00:22:29;3.90;99.90
3727;DHT22;1879;45.876;12.300;2023-12-20T00:24:56;3.90;99.90
3727;DHT22;1879;45.876;12.300;2023-12-20T00:27:23;3.90;99.90
3727;DHT22;1879;45.876;12.300;2023-12-20T00:29:50;3.90;99.90
3727;DHT22;1879;45.876;12.300;2023-12-20T00:32:17;3.80;99.90
3727;DHT22;1879;45.876;12.300;2023-12-20T00:34:46;3.90;99.90
3727;DHT22;1879;45.876;12.300;2023-12-20T00:37:13;3.80;99.90
3727;DHT22;1879;45.876;12.300;2023-12-20T00:39:40;3.90;99.90
3727;DHT22;1879;45.876;12.300;2023-12-20T00:42:07;3.90;99.90
3727;DHT22;1879;45.876;12.300;2023-12-20T00:44:34;3.80;99.90
3727;DHT22;1879;45.876;12.300;2023-12-20T00:47:00;3.80;99.90
3727;DHT22;1879;45.876;12.300;2023-12-20T00:49:27;3.90;99.90
3727;DHT22;1879;45.876;12.300;2023-12-20T00:51:56;3.80;99.90
3727;DHT22;1879;45.876;12.300;2023-12-20T00:54:22;3.80;99.90
3727;DHT22;1879;45.876;12.300;2023-12-20T00:56:49;3.80;99.90
3727;DHT22;1879;45.876;12.300;2023-12-20T00:59:25;3.80;99.90
3727;DHT22;1879;45.876;12.300;2023-12-20T01:01:52;3.70;99.90
3727;DHT22;1879;45.876;12.300;2023-12-20T01:04:19;3.70;99.90
3727;DHT22;1879;45.876;12.300;2023-12-20T01:06:46;3.70;99.90
3727;DHT22;1879;45.876;12.300;2023-12-20T01:09:15;3.80;99.90
3727;DHT22;1879;45.876;12.300;2023-12-20T01:11:43;3.80;99.90
3727;DHT22;1879;45.876;12.300;2023-12-20T01:14:10;3.80;99.90
3727;DHT22;1879;45.876;12.300;2023-12-20T01:16:37;3.70;99.90
3727;DHT22;1879;45.876;12.300;2023-12-20T01:19:04;3.60;99.90
3727;DHT22;1879;45.876;12.300;2023-12-20T01:21:31;3.60;99.90
3727;DHT22;1879;45.876;12.300;2023-12-20T01:23:58;3.60;99.90
3727;DHT22;1879;45.876;12.300;2023-12-20T01:26:26;3.50;99.90
3727;DHT22;1879;45.876;12.300;2023-12-20T01:28:53;3.50;99.90
3727;DHT22;1879;45.876;12.300;2023-12-20T01:31:20;3.60;99.90
3727;DHT22;1879;45.876;12.300;2023-12-20T01:33:47;3.60;99.90
3727;DHT22;1879;45.876;12.300;2023-12-20T01:36:14;3.50;99.90
3727;DHT22;1879;45.876;12.300;2023-12-20T01:38:41;3.50;99.90
3727;DHT22;1879;45.876;12.300;2023-12-20T01:41:08;3.40;99.90
3727;DHT22;1879;45.876;12.300;2023-12-20T01:43:36;3.40;99.90
3727;DHT22;1879;45.876;12.300;2023-12-20T01:46:03;3.50;99.90
3727;DHT22;1879;45.876;12.300;2023-12-20T01:48:31;3.50;99.90
3727;DHT22;1879;45.876;12.300;2023-12-20T01:50:58;3.50;99.90
3727;DHT22;1879;45.876;12.300;2023-12-20T01:53:27;3.50;99.90
3727;DHT22;1879;45.876;12.300;2023-12-20T01:55:56;3.50;99.90
3727;DHT22;1879;45.876;12.300;2023-12-20T01:58:24;3.50;99.90
3727;DHT22;1879;45.876;12.300;2023-12-20T02:00:54;3.40;99.90
3727;DHT22;1879;45.876;12.300;2023-12-20T02:03:21;3.40;99.90
3727;DHT22;1879;45.876;12.300;2023-12-20T02:05:48;3.50;99.90
3727;DHT22;1879;45.876;12.300;2023-12-20T02:08:15;3.50;99.90
3727;DHT22;1879;45.876;12.300;2023-12-20T02:10:42;3.50;99.90
3727;DHT22;1879;45.876;12.300;2023-12-20T02:13:09;3.50;99.90
3727;DHT22;1879;45.876;12.300;2023-12-20T02:15:36;3.50;99.90
3727;DHT22;1879;45.876;12.300;2023-12-20T02:18:06;3.40;99.90
3727;DHT22;1879;45.876;12.300;2023-12-20T02:20:33;3.30;99.90
3727;DHT22;1879;45.876;12.300;2023-12-20T02:23:01;3.30;99.90
3727;DHT22;1879;45.876;12.300;2023-12-20T02:25:28;3.40;99.90
3727;DHT22;1879;45.876;12.300;2023-12-20T02:27:55;3.40;99.90
3727;DHT22;1879;45.876;12.300;2023-12-20T02:30:22;3.40;99.90
3727;DHT22;1879;45.876;12.300;2023-12-20T02:32:50;3.40;99.90
3727;DHT22;1879;45.876;12.300;2023-12-20T02:35:16;3.40;99.90
3727;DHT22;1879;45.876;12.300;2023-12-20T02:37:43;3.40;99.90
3727;DHT22;1879;45.876;12.300;2023-12-20T02:40:12;3.50;99.90
3727;DHT22;1879;45.876;12.300;2023-12-20T02:42:39;3.50;99.90
3727;DHT22;1879;45.876;12.300;2023-12-20T02:45:07;3.50;99.90
3727;DHT22;1879;45.876;12.300;2023-12-20T02:47:34;3.50;99.90
3727;DHT22;1879;45.876;12.300;2023-12-20T02:50:01;3.50;99.90
3727;DHT22;1879;45.876;12.300;2023-12-20T02:52:29;3.50;99.90
3727;DHT22;1879;45.876;12.300;2023-12-20T02:54:55;3.50;99.90
3727;DHT22;1879;45.876;12.300;2023-12-20T02:57:24;3.60;99.90
3727;DHT22;1879;45.876;12.300;2023-12-20T02:59:51;3.60;99.90
3727;DHT22;1879;45.876;12.300;2023-12-20T03:02:17;3.60;99.90
3727;DHT22;1879;45.876;12.300;2023-12-20T03:04:45;3.60;99.90
3727;DHT22;1879;45.876;12.300;2023-12-20T03:07:12;3.60;99.90
3727;DHT22;1879;45.876;12.300;2023-12-20T03:09:38;3.60;99.90
3727;DHT22;1879;45.876;12.300;2023-12-20T03:12:05;3.70;99.90
3727;DHT22;1879;45.876;12.300;2023-12-20T03:14:34;3.70;99.90
3727;DHT22;1879;45.876;12.300;2023-12-20T03:17:01;3.70;99.90
3727;DHT22;1879;45.876;12.300;2023-12-20T03:19:28;3.70;99.90
3727;DHT22;1879;45.876;12.300;2023-12-20T03:21:54;3.70;99.90
3727;DHT22;1879;45.876;12.300;2023-12-20T03:24:21;3.60;99.90
3727;DHT22;1879;45.876;12.300;2023-12-20T03:26:48;3.60;99.90
3727;DHT22;1879;45.876;12.300;2023-12-20T03:29:15;3.60;99.90
3727;DHT22;1879;45.876;12.300;2023-12-20T03:31:43;3.50;99.90
3727;DHT22;1879;45.876;12.300;2023-12-20T03:34:11;3.40;99.90
3727;DHT22;1879;45.876;12.300;2023-12-20T03:36:38;3.40;99.90
3727;DHT22;1879;45.876;12.300;2023-12-20T03:39:05;3.40;99.90
3727;DHT22;1879;45.876;12.300;2023-12-20T03:41:33;3.40;99.90
3727;DHT22;1879;45.876;12.300;2023-12-20T03:44:00;3.30;99.90
3727;DHT22;1879;45.876;12.300;2023-12-20T03:46:27;3.30;99.90
3727;DHT22;1879;45.876;12.300;2023-12-20T03:48:55;3.30;99.90
3727;DHT22;1879;45.876;12.300;2023-12-20T03:51:22;3.40;99.90
3727;DHT22;1879;45.876;12.300;2023-12-20T03:53:49;3.40;99.90
3727;DHT22;1879;45.876;12.300;2023-12-20T03:56:15;3.50;99.90
3727;DHT22;1879;45.876;12.300;2023-12-20T03:58:42;3.50;99.90
3727;DHT22;1879;45.876;12.300;2023-12-20T04:01:10;3.40;99.90
3727;DHT22;1879;45.876;12.300;2023-12-20T04:03:38;3.40;99.90
3727;DHT22;1879;45.876;12.300;2023-12-20T04:06:07;3.40;99.90
3727;DHT22;1879;45.876;12.300;2023-12-20T04:08:34;3.40;99.90
3727;DHT22;1879;45.876;12.300;2023-12-20T04:11:01;3.40;99.90
3727;DHT22;1879;45.876;12.300;2023-12-20T04:13:27;3.40;99.90
3727;DHT22;1879;45.876;12.300;2023-12-20T04:15:54;3.40;99.90
3727;DHT22;1879;45.876;12.300;2023-12-20T04:18:21;3.30;99.90
3727;DHT22;1879;45.876;12.300;2023-12-20T04:20:48;3.30;99.90
3727;DHT22;1879;45.876;12.300;2023-12-20T04:23:18;3.40;99.90
3727;DHT22;1879;45.876;12.300;2023-12-20T04:25:45;3.40;99.90
3727;DHT22;1879;45.876;12.300;2023-12-20T04:28:12;3.40;99.90
3727;DHT22;1879;45.876;12.300;2023-12-20T04:30:39;3.50;99.90
3727;DHT22;1879;45.876;12.300;2023-12-20T04:33:06;3.50;99.90
3727;DHT22;1879;45.876;12.300;2023-12-20T04:35:33;3.60;99.90
3727;DHT22;1879;45.876;12.300;2023-12-20T04:38:00;3.60;99.90
3727;DHT22;1879;45.876;12.300;2023-12-20T04:40:28;3.70;99.90
3727;DHT22;1879;45.876;12.300;2023-12-20T04:42:55;3.70;99.90
3727;DHT22;1879;45.876;12.300;2023-12-20T04:45:22;3.80;99.90
3727;DHT22;1879;45.876;12.300;2023-12-20T04:47:50;3.80;99.90
3727;DHT22;1879;45.876;12.300;2023-12-20T04:50:17;3.80;99.90
3727;DHT22;1879;45.876;12.300;2023-12-20T04:52:45;3.90;99.90
3727;DHT22;1879;45.876;12.300;2023-12-20T04:55:12;3.90;99.90
3727;DHT22;1879;45.876;12.300;2023-12-20T04:57:41;3.90;99.90
3727;DHT22;1879;45.876;12.300;2023-12-20T05:00:09;3.90;99.90
3727;DHT22;1879;45.876;12.300;2023-12-20T05:02:36;3.90;99.90
3727;DHT22;1879;45.876;12.300;2023-12-20T05:05:03;3.90;99.90
3727;DHT22;1879;45.876;12.300;2023-12-20T05:07:30;3.80;99.90
3727;DHT22;1879;45.876;12.300;2023-12-20T05:09:58;3.90;99.90
3727;DHT22;1879;45.876;12.300;2023-12-20T05:12:25;3.90;99.90
3727;DHT22;1879;45.876;12.300;2023-12-20T05:14:53;3.90;99.90
3727;DHT22;1879;45.876;12.300;2023-12-20T05:17:20;3.90;99.90
3727;DHT22;1879;45.876;12.300;2023-12-20T05:19:47;3.90;99.90
3727;DHT22;1879;45.876;12.300;2023-12-20T05:22:14;3.90;99.90
3727;DHT22;1879;45.876;12.300;2023-12-20T05:24:41;3.90;99.90
3727;DHT22;1879;45.876;12.300;2023-12-20T05:27:08;3.90;99.90
3727;DHT22;1879;45.876;12.300;2023-12-20T05:29:34;3.90;99.90
3727;DHT22;1879;45.876;12.300;2023-12-20T05:32:03;3.90;99.90
3727;DHT22;1879;45.876;12.300;2023-12-20T05:34:30;3.80;99.90
3727;DHT22;1879;45.876;12.300;2023-12-20T05:36:58;3.80;99.90
3727;DHT22;1879;45.876;12.300;2023-12-20T05:39:24;3.70;99.90
3727;DHT22;1879;45.876;12.300;2023-12-20T05:41:51;3.70;99.90
3727;DHT22;1879;45.876;12.300;2023-12-20T05:44:18;3.60;99.90
3727;DHT22;1879;45.876;12.300;2023-12-20T05:46:45;3.50;99.90
3727;DHT22;1879;45.876;12.300;2023-12-20T05:49:13;3.40;99.90
3727;DHT22;1879;45.876;12.300;2023-12-20T05:51:40;3.40;99.90
3727;DHT22;1879;45.876;12.300;2023-12-20T05:54:08;3.40;99.90
3727;DHT22;1879;45.876;12.300;2023-12-20T05:56:35;3.50;99.90
3727;DHT22;1879;45.876;12.300;2023-12-20T05:59:02;3.60;99.90
3727;DHT22;1879;45.876;12.300;2023-12-20T06:01:29;3.60;99.90
3727;DHT22;1879;45.876;12.300;2023-12-20T06:03:56;3.70;99.90
3727;DHT22;1879;45.876;12.300;2023-12-20T06:06:24;3.90;99.90
3727;DHT22;1879;45.876;12.300;2023-12-20T06:08:51;4.00;99.90
3727;DHT22;1879;45.876;12.300;2023-12-20T06:11:18;4.10;99.90
3727;DHT22;1879;45.876;12.300;2023-12-20T06:13:45;4.20;99.90
3727;DHT22;1879;45.876;12.300;2023-12-20T06:16:12;4.30;99.90
3727;DHT22;1879;45.876;12.300;2023-12-20T06:18:39;4.30;99.90
3727;DHT22;1879;45.876;12.300;2023-12-20T06:21:07;4.40;99.90
3727;DHT22;1879;45.876;12.300;2023-12-20T06:23:35;4.50;99.90
3727;DHT22;1879;45.876;12.300;2023-12-20T06:26:02;4.40;99.90
3727;DHT22;1879;45.876;12.300;2023-12-20T06:28:29;4.30;99.90
3727;DHT22;1879;45.876;12.300;2023-12-20T06:30:56;4.20;99.90
3727;DHT22;1879;45.876;12.300;2023-12-20T06:33:23;4.20;99.90
3727;DHT22;1879;45.876;12.300;2023-12-20T06:35:50;4.20;99.90
3727;DHT22;1879;45.876;12.300;2023-12-20T06:38:18;4.30;99.90
3727;DHT22;1879;45.876;12.300;2023-12-20T06:40:46;4.30;99.90
3727;DHT22;1879;45.876;12.300;2023-12-20T06:43:13;4.40;99.90
3727;DHT22;1879;45.876;12.300;2023-12-20T06:45:40;4.40;99.90
3727;DHT22;1879;45.876;12.300;2023-12-20T06:48:07;4.40;99.90
3727;DHT22;1879;45.876;12.300;2023-12-20T06:50:36;4.50;99.90
3727;DHT22;1879;45.876;12.300;2023-12-20T06:53:05;4.50;99.90
3727;DHT22;1879;45.876;12.300;2023-12-20T06:55:33;4.60;99.90
3727;DHT22;1879;45.876;12.300;2023-12-20T06:58:02;4.70;99.90
3727;DHT22;1879;45.876;12.300;2023-12-20T07:00:29;4.80;99.90
3727;DHT22;1879;45.876;12.300;2023-12-20T07:02:56;4.90;99.90
3727;DHT22;1879;45.876;12.300;2023-12-20T07:05:23;5.00;99.90
3727;DHT22;1879;45.876;12.300;2023-12-20T07:07:50;5.10;99.90
3727;DHT22;1879;45.876;12.300;2023-12-20T07:10:17;5.20;99.90
3727;DHT22;1879;45.876;12.300;2023-12-20T07:12:44;5.20;99.90
3727;DHT22;1879;45.876;12.300;2023-12-20T07:15:13;5.20;99.90
3727;DHT22;1879;45.876;12.300;2023-12-20T07:17:40;5.30;99.90
3727;DHT22;1879;45.876;12.300;2023-12-20T07:20:08;5.30;99.90
3727;DHT22;1879;45.876;12.300;2023-12-20T07:25:08;5.40;99.90
3727;DHT22;1879;45.876;12.300;2023-12-20T07:27:36;5.40;99.90
3727;DHT22;1879;45.876;12.300;2023-12-20T07:30:03;5.60;99.90
3727;DHT22;1879;45.876;12.300;2023-12-20T07:32:32;5.70;99.90
3727;DHT22;1879;45.876;12.300;2023-12-20T07:34:59;5.70;99.90
3727;DHT22;1879;45.876;12.300;2023-12-20T07:37:26;5.70;99.90
3727;DHT22;1879;45.876;12.300;2023-12-20T07:39:53;5.60;99.90
3727;DHT22;1879;45.876;12.300;2023-12-20T07:42:19;5.70;99.90
3727;DHT22;1879;45.876;12.300;2023-12-20T07:44:47;5.80;99.90
3727;DHT22;1879;45.876;12.300;2023-12-20T07:47:14;5.80;99.90
3727;DHT22;1879;45.876;12.300;2023-12-20T07:49:46;5.90;99.90
3727;DHT22;1879;45.876;12.300;2023-12-20T07:52:13;5.90;99.90
3727;DHT22;1879;45.876;12.300;2023-12-20T07:54:40;6.00;99.90
3727;DHT22;1879;45.876;12.300;2023-12-20T07:57:08;6.00;99.90
3727;DHT22;1879;45.876;12.300;2023-12-20T07:59:36;6.00;99.90
3727;DHT22;1879;45.876;12.300;2023-12-20T08:02:03;6.00;99.90
3727;DHT22;1879;45.876;12.300;2023-12-20T08:04:30;6.00;99.90
3727;DHT22;1879;45.876;12.300;2023-12-20T08:06:59;6.10;99.90
3727;DHT22;1879;45.876;12.300;2023-12-20T08:09:26;6.10;99.90
3727;DHT22;1879;45.876;12.300;2023-12-20T08:11:53;6.10;99.90
3727;DHT22;1879;45.876;12.300;2023-12-20T08:14:20;6.10;99.90
3727;DHT22;1879;45.876;12.300;2023-12-20T08:16:47;6.10;99.90
3727;DHT22;1879;45.876;12.300;2023-12-20T08:19:14;6.00;99.90
3727;DHT22;1879;45.876;12.300;2023-12-20T08:21:40;6.00;99.90
3727;DHT22;1879;45.876;12.300;2023-12-20T08:24:09;6.00;99.90
3727;DHT22;1879;45.876;12.300;2023-12-20T08:26:36;6.00;99.90
3727;DHT22;1879;45.876;12.300;2023-12-20T08:29:03;6.10;99.90
3727;DHT22;1879;45.876;12.300;2023-12-20T08:31:29;6.20;99.90
3727;DHT22;1879;45.876;12.300;2023-12-20T08:33:56;6.20;99.90
3727;DHT22;1879;45.876;12.300;2023-12-20T08:36:23;6.30;99.90
3727;DHT22;1879;45.876;12.300;2023-12-20T08:38:50;6.40;99.90
3727;DHT22;1879;45.876;12.300;2023-12-20T08:41:19;6.50;99.90
3727;DHT22;1879;45.876;12.300;2023-12-20T08:43:46;6.50;99.90
3727;DHT22;1879;45.876;12.300;2023-12-20T08:46:14;6.60;99.90
3727;DHT22;1879;45.876;12.300;2023-12-20T08:48:41;6.70;99.90
3727;DHT22;1879;45.876;12.300;2023-12-20T08:51:08;6.80;99.90
3727;DHT22;1879;45.876;12.300;2023-12-20T08:53:35;6.90;99.90
3727;DHT22;1879;45.876;12.300;2023-12-20T08:56:02;7.00;99.90
3727;DHT22;1879;45.876;12.300;2023-12-20T08:58:30;7.10;99.90
3727;DHT22;1879;45.876;12.300;2023-12-20T09:00:57;7.20;99.90
3727;DHT22;1879;45.876;12.300;2023-12-20T09:03:24;7.30;99.90
3727;DHT22;1879;45.876;12.300;2023-12-20T09:05:51;7.40;99.90
3727;DHT22;1879;45.876;12.300;2023-12-20T09:08:18;7.50;99.90
3727;DHT22;1879;45.876;12.300;2023-12-20T09:10:45;7.60;99.90
3727;DHT22;1879;45.876;12.300;2023-12-20T09:13:12;7.80;99.90
3727;DHT22;1879;45.876;12.300;2023-12-20T09:15:40;7.80;99.90
3727;DHT22;1879;45.876;12.300;2023-12-20T09:18:07;7.90;99.90
3727;DHT22;1879;45.876;12.300;2023-12-20T09:20:34;8.00;99.90
3727;DHT22;1879;45.876;12.300;2023-12-20T09:23:01;8.10;99.90
3727;DHT22;1879;45.876;12.300;2023-12-20T09:25:28;8.30;99.90
3727;DHT22;1879;45.876;12.300;2023-12-20T09:27:55;8.30;99.90
3727;DHT22;1879;45.876;12.300;2023-12-20T09:30:22;8.40;99.90
3727;DHT22;1879;45.876;12.300;2023-12-20T09:32:51;8.50;99.90
3727;DHT22;1879;45.876;12.300;2023-12-20T09:35:18;8.50;99.90
3727;DHT22;1879;45.876;12.300;2023-12-20T09:37:45;8.50;99.90
3727;DHT22;1879;45.876;12.300;2023-12-20T09:40:13;8.60;99.90
3727;DHT22;1879;45.876;12.300;2023-12-20T09:42:48;8.70;99.90
3727;DHT22;1879;45.876;12.300;2023-12-20T09:45:16;8.80;99.90
3727;DHT22;1879;45.876;12.300;2023-12-20T09:47:44;8.80;99.90
3727;DHT22;1879;45.876;12.300;2023-12-20T09:50:13;8.80;99.90
3727;DHT22;1879;45.876;12.300;2023-12-20T09:52:40;8.80;99.90
3727;DHT22;1879;45.876;12.300;2023-12-20T09:55:08;8.90;99.90
3727;DHT22;1879;45.876;12.300;2023-12-20T09:57:39;8.80;99.90
3727;DHT22;1879;45.876;12.300;2023-12-20T10:00:07;8.80;99.90
3727;DHT22;1879;45.876;12.300;2023-12-20T10:02:36;8.80;99.90
3727;DHT22;1879;45.876;12.300;2023-12-20T10:05:08;8.80;99.90
3727;DHT22;1879;45.876;12.300;2023-12-20T10:07:36;8.80;99.90
3727;DHT22;1879;45.876;12.300;2023-12-20T10:10:05;8.90;99.90
3727;DHT22;1879;45.876;12.300;2023-12-20T10:12:32;9.00;99.90
3727;DHT22;1879;45.876;12.300;2023-12-20T10:14:59;9.10;99.90
3727;DHT22;1879;45.876;12.300;2023-12-20T10:17:27;9.20;99.90
3727;DHT22;1879;45.876;12.300;2023-12-20T10:19:55;9.30;99.90
3727;DHT22;1879;45.876;12.300;2023-12-20T10:22:22;9.40;99.90
3727;DHT22;1879;45.876;12.300;2023-12-20T10:24:50;9.50;99.90
3727;DHT22;1879;45.876;12.300;2023-12-20T10:27:18;9.60;99.90
3727;DHT22;1879;45.876;12.300;2023-12-20T10:29:45;9.60;99.90
3727;DHT22;1879;45.876;12.300;2023-12-20T10:32:22;9.70;99.90
3727;DHT22;1879;45.876;12.300;2023-12-20T10:34:50;9.70;99.90
3727;DHT22;1879;45.876;12.300;2023-12-20T10:37:17;9.80;99.90
3727;DHT22;1879;45.876;12.300;2023-12-20T10:39:47;9.80;99.90
3727;DHT22;1879;45.876;12.300;2023-12-20T10:42:18;9.90;99.90
3727;DHT22;1879;45.876;12.300;2023-12-20T10:44:47;10.00;99.00
3727;DHT22;1879;45.876;12.300;2023-12-20T10:47:14;10.10;98.60
3727;DHT22;1879;45.876;12.300;2023-12-20T10:49:42;10.10;98.20
3727;DHT22;1879;45.876;12.300;2023-12-20T10:52:09;10.20;98.20
3727;DHT22;1879;45.876;12.300;2023-12-20T10:54:38;10.20;97.70
3727;DHT22;1879;45.876;12.300;2023-12-20T10:57:06;10.30;97.50
3727;DHT22;1879;45.876;12.300;2023-12-20T10:59:37;10.30;97.10
3727;DHT22;1879;45.876;12.300;2023-12-20T11:02:04;10.50;97.20
3727;DHT22;1879;45.876;12.300;2023-12-20T11:04:37;10.60;97.20
3727;DHT22;1879;45.876;12.300;2023-12-20T11:07:13;10.70;97.40
3727;DHT22;1879;45.876;12.300;2023-12-20T11:09:48;11.00;97.10
3727;DHT22;1879;45.876;12.300;2023-12-20T11:12:19;11.20;96.80
3727;DHT22;1879;45.876;12.300;2023-12-20T11:14:53;11.40;96.80
3727;DHT22;1879;45.876;12.300;2023-12-20T11:17:21;11.60;96.70
3727;DHT22;1879;45.876;12.300;2023-12-20T11:20:07;11.50;96.60
3727;DHT22;1879;45.876;12.300;2023-12-20T11:22:36;11.30;96.90
3727;DHT22;1879;45.876;12.300;2023-12-20T11:25:05;11.10;97.40
3727;DHT22;1879;45.876;12.300;2023-12-20T11:27:34;11.00;97.70
3727;DHT22;1879;45.876;12.300;2023-12-20T11:30:03;11.00;98.00
3727;DHT22;1879;45.876;12.300;2023-12-20T11:32:34;10.90;98.20
3727;DHT22;1879;45.876;12.300;2023-12-20T11:35:16;10.90;98.80
3727;DHT22;1879;45.876;12.300;2023-12-20T11:37:43;10.90;99.30
3727;DHT22;1879;45.876;12.300;2023-12-20T11:40:14;10.90;99.70
3727;DHT22;1879;45.876;12.300;2023-12-20T11:42:42;10.90;99.90
3727;DHT22;1879;45.876;12.300;2023-12-20T11:45:13;10.90;99.90
3727;DHT22;1879;45.876;12.300;2023-12-20T11:47:41;10.90;99.90
3727;DHT22;1879;45.876;12.300;2023-12-20T11:50:09;10.90;99.90
3727;DHT22;1879;45.876;12.300;2023-12-20T11:52:36;10.90;99.90
3727;DHT22;1879;45.876;12.300;2023-12-20T11:55:03;10.90;99.90
3727;DHT22;1879;45.876;12.300;2023-12-20T11:57:30;10.80;99.90
3727;DHT22;1879;45.876;12.300;2023-12-20T11:59:57;10.70;99.90
3727;DHT22;1879;45.876;12.300;2023-12-20T12:02:26;10.70;99.90
3727;DHT22;1879;45.876;12.300;2023-12-20T12:04:53;10.60;99.90
3727;DHT22;1879;45.876;12.300;2023-12-20T12:07:20;10.70;99.90
3727;DHT22;1879;45.876;12.300;2023-12-20T12:09:47;10.60;99.90
3727;DHT22;1879;45.876;12.300;2023-12-20T12:12:15;10.50;99.90
3727;DHT22;1879;45.876;12.300;2023-12-20T12:14:42;10.40;99.90
3727;DHT22;1879;45.876;12.300;2023-12-20T12:17:12;10.40;99.90
3727;DHT22;1879;45.876;12.300;2023-12-20T12:19:41;10.40;99.90
3727;DHT22;1879;45.876;12.300;2023-12-20T12:22:09;10.40;99.90
3727;DHT22;1879;45.876;12.300;2023-12-20T12:24:39;10.40;99.90
3727;DHT22;1879;45.876;12.300;2023-12-20T12:27:06;10.40;99.90
3727;DHT22;1879;45.876;12.300;2023-12-20T12:29:33;10.40;99.90
3727;DHT22;1879;45.876;12.300;2023-12-20T12:32:01;10.40;99.90
3727;DHT22;1879;45.876;12.300;2023-12-20T12:34:28;10.50;99.90
3727;DHT22;1879;45.876;12.300;2023-12-20T12:36:56;10.40;99.90
3727;DHT22;1879;45.876;12.300;2023-12-20T12:39:24;10.50;99.90
3727;DHT22;1879;45.876;12.300;2023-12-20T12:41:51;10.50;99.90
3727;DHT22;1879;45.876;12.300;2023-12-20T12:44:18;10.50;99.90
3727;DHT22;1879;45.876;12.300;2023-12-20T12:46:46;10.50;99.90
3727;DHT22;1879;45.876;12.300;2023-12-20T12:49:15;10.50;99.90
3727;DHT22;1879;45.876;12.300;2023-12-20T12:51:42;10.50;99.90
3727;DHT22;1879;45.876;12.300;2023-12-20T12:54:12;10.50;99.90
3727;DHT22;1879;45.876;12.300;2023-12-20T12:56:41;10.50;99.90
3727;DHT22;1879;45.876;12.300;2023-12-20T12:59:08;10.60;99.90
3727;DHT22;1879;45.876;12.300;2023-12-20T13:01:35;10.60;99.90
3727;DHT22;1879;45.876;12.300;2023-12-20T13:04:02;10.70;99.90
3727;DHT22;1879;45.876;12.300;2023-12-20T13:06:32;10.80;99.90
3727;DHT22;1879;45.876;12.300;2023-12-20T13:08:59;10.80;99.90
3727;DHT22;1879;45.876;12.300;2023-12-20T13:11:27;10.80;99.90
3727;DHT22;1879;45.876;12.300;2023-12-20T13:13:54;11.00;99.90
3727;DHT22;1879;45.876;12.300;2023-12-20T13:16:21;11.10;99.90
3727;DHT22;1879;45.876;12.300;2023-12-20T13:18:48;11.10;99.90
3727;DHT22;1879;45.876;12.300;2023-12-20T13:21:15;11.20;99.90
3727;DHT22;1879;45.876;12.300;2023-12-20T13:23:42;11.30;99.90
3727;DHT22;1879;45.876;12.300;2023-12-20T13:26:09;11.40;99.90
3727;DHT22;1879;45.876;12.300;2023-12-20T13:28:37;11.60;99.90
3727;DHT22;1879;45.876;12.300;2023-12-20T13:31:04;11.80;99.90
3727;DHT22;1879;45.876;12.300;2023-12-20T13:33:31;11.90;99.90
3727;DHT22;1879;45.876;12.300;2023-12-20T13:35:58;12.00;99.90
3727;DHT22;1879;45.876;12.300;2023-12-20T13:38:25;11.80;99.90
3727;DHT22;1879;45.876;12.300;2023-12-20T13:40:52;11.70;99.90
3727;DHT22;1879;45.876;12.300;2023-12-20T13:43:19;11.70;99.90
3727;DHT22;1879;45.876;12.300;2023-12-20T13:45:48;11.60;99.90
3727;DHT22;1879;45.876;12.300;2023-12-20T13:48:18;11.50;99.90
3727;DHT22;1879;45.876;12.300;2023-12-20T13:50:45;11.50;99.90
3727;DHT22;1879;45.876;12.300;2023-12-20T13:53:12;11.30;99.90
3727;DHT22;1879;45.876;12.300;2023-12-20T13:55:39;11.30;99.90
3727;DHT22;1879;45.876;12.300;2023-12-20T13:58:07;11.60;99.90
3727;DHT22;1879;45.876;12.300;2023-12-20T14:00:34;11.70;99.90
3727;DHT22;1879;45.876;12.300;2023-12-20T14:05:32;12.50;99.90
3727;DHT22;1879;45.876;12.300;2023-12-20T14:07:59;12.60;99.90
3727;DHT22;1879;45.876;12.300;2023-12-20T14:10:26;12.70;99.90
3727;DHT22;1879;45.876;12.300;2023-12-20T14:12:53;12.60;99.90
3727;DHT22;1879;45.876;12.300;2023-12-20T14:15:20;12.20;99.90
3727;DHT22;1879;45.876;12.300;2023-12-20T14:17:51;12.10;99.90
3727;DHT22;1879;45.876;12.300;2023-12-20T14:20:19;12.20;99.90
3727;DHT22;1879;45.876;12.300;2023-12-20T14:25:14;13.00;98.00
3727;DHT22;1879;45.876;12.300;2023-12-20T14:27:41;13.60;97.20
3727;DHT22;1879;45.876;12.300;2023-12-20T14:30:10;13.60;96.20
3727;DHT22;1879;45.876;12.300;2023-12-20T14:32:37;13.10;96.10
3727;DHT22;1879;45.876;12.300;2023-12-20T14:35:05;12.50;96.60
3727;DHT22;1879;45.876;12.300;2023-12-20T14:37:35;11.90;97.30
3727;DHT22;1879;45.876;12.300;2023-12-20T14:40:05;11.50;98.10
3727;DHT22;1879;45.876;12.300;2023-12-20T14:42:32;11.40;98.50
3727;DHT22;1879;45.876;12.300;2023-12-20T14:44:59;11.20;98.60
3727;DHT22;1879;45.876;12.300;2023-12-20T14:47:26;11.10;99.00
3727;DHT22;1879;45.876;12.300;2023-12-20T14:49:53;11.30;99.00
3727;DHT22;1879;45.876;12.300;2023-12-20T14:52:19;11.60;98.80
3727;DHT22;1879;45.876;12.300;2023-12-20T14:54:47;11.60;98.50
3727;DHT22;1879;45.876;12.300;2023-12-20T14:57:14;11.50;98.50
3727;DHT22;1879;45.876;12.300;2023-12-20T14:59:41;11.20;98.70
3727;DHT22;1879;45.876;12.300;2023-12-20T15:02:09;10.90;99.00
3727;DHT22;1879;45.876;12.300;2023-12-20T15:04:36;10.60;99.40
3727;DHT22;1879;45.876;12.300;2023-12-20T15:07:03;10.40;99.90
3727;DHT22;1879;45.876;12.300;2023-12-20T15:09:31;10.20;99.90
3727;DHT22;1879;45.876;12.300;2023-12-20T15:12:00;10.00;99.80
3727;DHT22;1879;45.876;12.300;2023-12-20T15:14:27;9.80;99.90
3727;DHT22;1879;45.876;12.300;2023-12-20T15:16:54;9.70;99.90
3727;DHT22;1879;45.876;12.300;2023-12-20T15:19:21;9.60;99.90
3727;DHT22;1879;45.876;12.300;2023-12-20T15:21:48;9.40;99.90
3727;DHT22;1879;45.876;12.300;2023-12-20T15:24:16;9.30;99.90
3727;DHT22;1879;45.876;12.300;2023-12-20T15:26:46;9.20;99.90
3727;DHT22;1879;45.876;12.300;2023-12-20T15:29:14;9.10;99.90
3727;DHT22;1879;45.876;12.300;2023-12-20T15:31:45;9.10;99.90
3727;DHT22;1879;45.876;12.300;2023-12-20T15:34:12;9.00;99.90
3727;DHT22;1879;45.876;12.300;2023-12-20T15:36:39;8.90;99.90
3727;DHT22;1879;45.876;12.300;2023-12-20T15:39:06;8.80;99.90
3727;DHT22;1879;45.876;12.300;2023-12-20T15:41:34;8.70;99.90
3727;DHT22;1879;45.876;12.300;2023-12-20T15:44:01;8.60;99.90
3727;DHT22;1879;45.876;12.300;2023-12-20T15:46:29;8.60;99.90
3727;DHT22;1879;45.876;12.300;2023-12-20T15:48:56;8.50;99.90
3727;DHT22;1879;45.876;12.300;2023-12-20T15:51:23;8.40;99.90
3727;DHT22;1879;45.876;12.300;2023-12-20T15:53:51;8.40;99.90
3727;DHT22;1879;45.876;12.300;2023-12-20T15:56:18;8.30;99.90
3727;DHT22;1879;45.876;12.300;2023-12-20T15:58:45;8.20;99.90
3727;DHT22;1879;45.876;12.300;2023-12-20T16:01:13;8.10;99.90
3727;DHT22;1879;45.876;12.300;2023-12-20T16:03:41;8.00;99.90
3727;DHT22;1879;45.876;12.300;2023-12-20T16:06:09;7.90;99.90